Cooper Island, British Virgin Islands
Current Conditions -  °F | °C
As of 7:00 PM on Wednesday 26 Nov 2014 (Local Time) from TUPJ Reporting Station
Scattered Clouds Scattered Clouds  
Wind Chill: 81°   Ceiling: Unl
Heat Index: 85°   Visibility: 6mi
Dew Point: 73°   Wind: 12mph
Humidity: 79%   Direction: 100°E
Pressure: 30"   Gusts: NA
Location:  18.38°N, 64.51°W
Report Text: TUPJ 262300Z 10010KT 9999 SCT019 27/23 Q1016 RMK A3001
Loading
Personal Weather Stations






























Interactive Weather Map New forecast layout! Learn more

10-Day Weather Forecast

Advertisements
Track Severe Weather on mobile